createdAt,value
2018-10-17T00:01:42.293Z,22.53
2018-10-17T00:04:10.786Z,22.83
2018-10-17T00:06:39.335Z,35.73
2018-10-17T00:09:09.366Z,26.23
2018-10-17T00:11:38.230Z,26.07
2018-10-17T00:14:07.098Z,23.37
2018-10-17T00:16:35.605Z,20.13
2018-10-17T00:19:09.601Z,24.50
2018-10-17T00:21:38.110Z,25.53
2018-10-17T00:24:06.650Z,23.60
2018-10-17T00:26:35.248Z,26.23
2018-10-17T00:29:03.812Z,21.10
2018-10-17T00:31:32.272Z,24.27
2018-10-17T00:34:00.778Z,21.27
2018-10-17T00:36:29.272Z,20.80
2018-10-17T00:38:57.775Z,23.33
2018-10-17T00:41:26.323Z,22.33
2018-10-17T00:43:54.839Z,26.43
2018-10-17T00:46:23.344Z,22.17
2018-10-17T00:48:51.906Z,30.90
2018-10-17T00:51:20.393Z,23.87
2018-10-17T00:53:48.955Z,22.30
2018-10-17T00:56:17.490Z,22.50
2018-10-17T00:58:57.133Z,24.63
2018-10-17T01:01:25.623Z,21.30
2018-10-17T01:03:54.147Z,22.90
2018-10-17T01:06:22.679Z,23.30
2018-10-17T01:08:51.208Z,23.47
2018-10-17T01:11:19.765Z,21.73
2018-10-17T01:13:48.257Z,24.90
2018-10-17T01:16:16.783Z,23.23
2018-10-17T01:18:45.286Z,25.13
2018-10-17T01:21:13.784Z,22.67
2018-10-17T01:23:43.783Z,20.53
2018-10-17T01:26:12.361Z,21.17
2018-10-17T01:28:42.752Z,23.73
2018-10-17T01:31:11.289Z,29.23
2018-10-17T01:33:40.823Z,19.80
2018-10-17T01:36:09.329Z,21.90
2018-10-17T01:38:37.995Z,22.13
2018-10-17T01:41:06.561Z,23.90
2018-10-17T01:43:35.079Z,23.27
2018-10-17T01:46:03.603Z,21.17
2018-10-17T01:48:32.110Z,22.47
2018-10-17T01:51:00.715Z,22.97
2018-10-17T01:53:29.462Z,21.80
2018-10-17T01:55:58.039Z,19.37
2018-10-17T01:58:26.547Z,20.17
2018-10-17T02:00:55.086Z,21.83
2018-10-17T02:03:23.610Z,23.00
2018-10-17T02:05:52.122Z,21.30
2018-10-17T02:08:20.641Z,19.33
2018-10-17T02:10:49.195Z,18.43
2018-10-17T02:13:20.318Z,21.37
2018-10-17T02:15:50.170Z,20.80
2018-10-17T02:18:18.928Z,21.50
2018-10-17T02:20:47.442Z,26.03
2018-10-17T02:23:15.974Z,22.20
2018-10-17T02:25:44.525Z,23.60
2018-10-17T02:28:13.063Z,22.23
2018-10-17T02:30:41.584Z,21.70
2018-10-17T02:33:10.098Z,22.27
2018-10-17T02:35:38.603Z,24.90
2018-10-17T02:38:07.115Z,23.40
2018-10-17T02:40:35.634Z,21.70
2018-10-17T02:43:04.249Z,25.33
2018-10-17T02:45:32.666Z,23.07
2018-10-17T02:48:01.160Z,26.47
2018-10-17T02:50:29.647Z,21.10
2018-10-17T02:52:58.192Z,20.70
2018-10-17T02:55:26.725Z,23.03
2018-10-17T02:57:55.263Z,21.80
2018-10-17T03:00:23.776Z,31.13
2018-10-17T03:02:52.284Z,33.37
2018-10-17T03:05:20.887Z,28.67
2018-10-17T03:07:49.354Z,33.73
2018-10-17T03:10:17.855Z,33.80
2018-10-17T03:12:46.346Z,29.47
2018-10-17T03:15:14.879Z,26.73
2018-10-17T03:17:43.414Z,26.97
2018-10-17T03:20:12.218Z,29.10
2018-10-17T03:22:40.791Z,27.30
2018-10-17T03:25:10.266Z,29.07
2018-10-17T03:27:38.770Z,23.20
2018-10-17T03:30:07.434Z,27.40
2018-10-17T03:32:35.929Z,24.50
2018-10-17T03:35:04.480Z,28.10
2018-10-17T03:37:32.950Z,28.77
2018-10-17T03:40:01.585Z,21.57
2018-10-17T03:42:30.094Z,24.37
2018-10-17T03:44:58.600Z,21.63
2018-10-17T03:47:27.075Z,33.23
2018-10-17T03:49:55.649Z,19.37
2018-10-17T03:52:24.121Z,22.60
2018-10-17T03:54:52.640Z,22.20
2018-10-17T03:57:21.111Z,23.03
2018-10-17T03:59:49.735Z,19.03
2018-10-17T04:02:18.989Z,18.57
2018-10-17T04:04:47.516Z,26.80
2018-10-17T04:07:16.016Z,22.10
2018-10-17T04:09:44.525Z,23.30
2018-10-17T04:12:13.039Z,23.23
2018-10-17T04:14:41.536Z,22.40
2018-10-17T04:17:10.186Z,20.73
2018-10-17T04:19:38.667Z,20.03
2018-10-17T04:22:07.164Z,25.27
2018-10-17T04:24:35.668Z,20.13
2018-10-17T04:27:04.214Z,19.80
2018-10-17T04:29:32.731Z,15.80
2018-10-17T04:34:53.837Z,19.43
2018-10-17T04:37:22.338Z,20.60
2018-10-17T04:39:51.169Z,19.70
2018-10-17T04:42:19.651Z,16.67
2018-10-17T04:44:48.151Z,21.20
2018-10-17T04:47:16.789Z,24.30
2018-10-17T04:49:45.179Z,18.70
2018-10-17T04:52:13.675Z,26.17
2018-10-17T04:54:42.218Z,17.17
2018-10-17T04:57:10.726Z,14.33
2018-10-17T04:59:39.227Z,19.43
2018-10-17T05:02:07.716Z,18.40
2018-10-17T05:04:36.289Z,20.83
2018-10-17T05:07:04.790Z,21.57
2018-10-17T05:09:33.310Z,19.00
2018-10-17T05:12:01.796Z,16.30
2018-10-17T05:14:30.295Z,19.30
2018-10-17T05:19:51.868Z,19.73
2018-10-17T05:22:20.390Z,19.40
2018-10-17T05:24:48.877Z,19.80
2018-10-17T05:27:17.394Z,20.67
2018-10-17T05:29:45.992Z,26.73
2018-10-17T05:32:14.429Z,24.47
2018-10-17T05:34:42.970Z,19.60
2018-10-17T05:37:11.592Z,22.47
2018-10-17T05:39:40.016Z,18.27
2018-10-17T05:42:08.536Z,18.47
2018-10-17T05:44:37.144Z,17.07
2018-10-17T05:47:05.875Z,20.17
2018-10-17T05:49:34.367Z,24.97
2018-10-17T05:52:02.946Z,31.63
2018-10-17T05:54:31.474Z,20.90
2018-10-17T05:56:59.966Z,24.10
2018-10-17T05:59:28.825Z,24.17
2018-10-17T06:01:59.584Z,19.07
2018-10-17T06:04:28.098Z,19.63
2018-10-17T06:06:56.633Z,25.40
2018-10-17T06:09:25.133Z,22.10
2018-10-17T06:11:53.659Z,24.13
2018-10-17T06:14:22.148Z,24.23
2018-10-17T06:16:50.732Z,21.90
2018-10-17T06:19:19.556Z,24.33
2018-10-17T06:21:48.059Z,33.83
2018-10-17T06:24:16.582Z,23.70
2018-10-17T06:26:45.086Z,23.60
2018-10-17T06:29:13.641Z,24.63
2018-10-17T06:31:42.091Z,22.90
2018-10-17T06:34:10.672Z,26.80
2018-10-17T06:36:39.120Z,27.03
2018-10-17T06:39:09.811Z,28.33
2018-10-17T06:41:38.307Z,22.00
2018-10-17T06:44:07.376Z,21.30
2018-10-17T06:46:36.143Z,21.00
2018-10-17T06:49:04.787Z,21.83
2018-10-17T06:51:33.254Z,19.83
2018-10-17T06:54:01.831Z,18.07
2018-10-17T06:56:30.531Z,21.67
2018-10-17T06:58:59.089Z,23.33
2018-10-17T07:01:27.551Z,23.03
2018-10-17T07:03:56.102Z,27.87
2018-10-17T07:06:24.619Z,24.70
2018-10-17T07:08:53.113Z,30.50
2018-10-17T07:11:21.754Z,25.03
2018-10-17T07:13:50.183Z,24.43
2018-10-17T07:16:18.843Z,27.10
2018-10-17T07:18:47.349Z,23.37
2018-10-17T07:21:15.842Z,20.27
2018-10-17T07:23:44.450Z,23.73
2018-10-17T07:26:12.959Z,26.63
2018-10-17T07:28:44.578Z,24.70
2018-10-17T07:31:13.092Z,22.80
2018-10-17T07:33:43.346Z,24.63
2018-10-17T07:36:11.911Z,23.80
2018-10-17T07:38:41.947Z,23.67
2018-10-17T07:41:10.518Z,28.77
2018-10-17T07:43:39.212Z,22.90
2018-10-17T07:46:07.718Z,22.87
2018-10-17T07:48:36.218Z,27.53
2018-10-17T07:51:05.100Z,30.40
2018-10-17T07:53:33.910Z,24.90
2018-10-17T07:56:02.684Z,22.57
2018-10-17T07:58:31.210Z,28.77
2018-10-17T08:00:59.839Z,25.50
2018-10-17T08:03:28.375Z,22.33
2018-10-17T08:05:56.914Z,22.60
2018-10-17T08:08:25.386Z,30.50
2018-10-17T08:10:53.918Z,31.87
2018-10-17T08:13:22.429Z,25.10
2018-10-17T08:15:50.947Z,32.07
2018-10-17T08:18:19.536Z,27.67
2018-10-17T08:20:48.021Z,23.63
2018-10-17T08:23:16.533Z,31.10
2018-10-17T08:25:45.024Z,36.83
2018-10-17T08:28:13.517Z,36.53
2018-10-17T08:30:42.037Z,26.80
2018-10-17T08:33:10.632Z,30.20
2018-10-17T08:35:39.285Z,33.13
2018-10-17T08:38:07.777Z,32.93
2018-10-17T08:40:36.227Z,30.53
2018-10-17T08:43:05.375Z,33.47
2018-10-17T08:45:34.006Z,31.13
2018-10-17T08:48:02.503Z,32.53
2018-10-17T08:50:31.066Z,33.00
2018-10-17T08:52:59.516Z,28.90
2018-10-17T08:55:28.047Z,31.40
2018-10-17T08:57:56.669Z,30.93
2018-10-17T09:00:25.274Z,28.93
2018-10-17T09:02:53.778Z,32.00
2018-10-17T09:05:22.292Z,30.90
2018-10-17T09:07:50.985Z,32.70
2018-10-17T09:10:19.359Z,29.13
2018-10-17T09:12:47.875Z,36.57
2018-10-17T09:15:16.382Z,30.27
2018-10-17T09:17:44.898Z,29.03
2018-10-17T09:20:13.747Z,28.77
2018-10-17T09:22:42.073Z,29.57
2018-10-17T09:25:10.545Z,26.30
2018-10-17T09:27:39.062Z,30.43
2018-10-17T09:30:09.188Z,26.27
2018-10-17T09:32:37.756Z,24.70
2018-10-17T09:35:07.174Z,29.77
2018-10-17T09:37:35.835Z,30.97
2018-10-17T09:40:04.548Z,26.70
2018-10-17T09:42:33.073Z,24.20
2018-10-17T09:45:01.591Z,32.70
2018-10-17T09:47:30.118Z,24.43
2018-10-17T09:49:58.692Z,24.93
2018-10-17T09:52:27.214Z,27.77
2018-10-17T09:54:55.735Z,23.53
2018-10-17T09:57:24.251Z,24.13
2018-10-17T09:59:52.788Z,24.63
2018-10-17T10:02:22.184Z,26.93
2018-10-17T10:04:50.732Z,24.07
2018-10-17T10:07:19.269Z,22.43
2018-10-17T10:09:47.798Z,24.93
2018-10-17T10:12:16.402Z,21.73
2018-10-17T10:14:44.948Z,25.17
2018-10-17T10:17:13.558Z,22.53
2018-10-17T10:19:42.047Z,22.10
2018-10-17T10:22:10.594Z,30.20
2018-10-17T10:24:39.129Z,25.40
2018-10-17T10:27:07.622Z,25.83
2018-10-17T10:29:36.177Z,20.77
2018-10-17T10:32:04.762Z,29.43
2018-10-17T10:34:33.302Z,22.83
2018-10-17T10:37:01.807Z,23.43
2018-10-17T10:39:30.302Z,23.30
2018-10-17T10:41:58.882Z,21.00
2018-10-17T10:44:27.366Z,25.53
2018-10-17T10:46:55.919Z,23.80
2018-10-17T10:49:24.446Z,20.03
2018-10-17T10:51:52.952Z,20.80
2018-10-17T10:54:21.598Z,21.63
2018-10-17T10:56:50.840Z,21.57
2018-10-17T10:59:19.615Z,21.83
2018-10-17T11:01:48.092Z,25.63
2018-10-17T11:04:16.622Z,24.20
2018-10-17T11:06:45.151Z,31.27
2018-10-17T11:09:13.667Z,28.70
2018-10-17T11:11:42.160Z,38.23
2018-10-17T11:14:10.841Z,35.53
2018-10-17T11:16:39.283Z,27.20
2018-10-17T11:19:07.817Z,25.30
2018-10-17T11:21:36.459Z,38.53
2018-10-17T11:24:05.152Z,28.03
2018-10-17T11:26:33.682Z,27.10
2018-10-17T11:29:02.262Z,27.30
2018-10-17T11:31:30.905Z,24.50
2018-10-17T11:33:59.367Z,25.03
2018-10-17T11:36:27.851Z,25.33
2018-10-17T11:38:56.424Z,23.43
2018-10-17T11:41:25.015Z,24.40
2018-10-17T11:43:53.559Z,27.17
2018-10-17T11:46:22.199Z,26.53
2018-10-17T11:48:58.255Z,20.97
2018-10-17T11:51:26.815Z,24.17
2018-10-17T11:53:55.319Z,24.03
2018-10-17T11:56:23.822Z,21.93
2018-10-17T11:58:52.407Z,26.40
2018-10-17T12:01:20.930Z,25.17
2018-10-17T12:03:49.642Z,23.57
2018-10-17T12:06:18.133Z,25.67
2018-10-17T12:08:46.518Z,23.30
2018-10-17T12:11:15.213Z,22.60
2018-10-17T12:13:44.720Z,22.00
2018-10-17T12:16:13.260Z,28.90
2018-10-17T12:18:42.985Z,23.30
2018-10-17T12:21:11.714Z,28.47
2018-10-17T12:23:41.360Z,27.00
2018-10-17T12:26:09.896Z,24.80
2018-10-17T12:28:38.592Z,22.10
2018-10-17T12:31:07.055Z,27.30
2018-10-17T12:33:35.627Z,23.70
2018-10-17T12:36:04.269Z,28.97
2018-10-17T12:38:32.749Z,21.03
2018-10-17T12:41:01.402Z,24.80
2018-10-17T12:43:29.790Z,20.57
2018-10-17T12:45:58.334Z,21.40
2018-10-17T12:48:26.841Z,21.93
2018-10-17T12:50:55.364Z,24.70
2018-10-17T12:53:23.908Z,26.60
2018-10-17T12:55:52.423Z,20.47
2018-10-17T12:58:20.943Z,20.50
2018-10-17T13:00:49.487Z,20.67
2018-10-17T13:03:18.035Z,21.73
2018-10-17T13:05:46.530Z,26.93
2018-10-17T13:08:15.025Z,21.83
2018-10-17T13:10:43.546Z,23.93
2018-10-17T13:13:12.123Z,22.43
2018-10-17T13:15:40.583Z,26.87
2018-10-17T13:18:09.091Z,21.20
2018-10-17T13:20:37.715Z,29.57
2018-10-17T13:23:06.618Z,25.20
2018-10-17T13:25:35.106Z,27.13
2018-10-17T13:28:03.661Z,31.60
2018-10-17T13:30:32.191Z,33.13
2018-10-17T13:33:00.737Z,34.07
2018-10-17T13:35:29.251Z,31.27
2018-10-17T13:37:57.752Z,29.63
2018-10-17T13:40:26.258Z,27.17
2018-10-17T13:42:54.771Z,30.93
2018-10-17T13:45:23.294Z,29.67
2018-10-17T13:47:51.814Z,30.77
2018-10-17T13:50:20.319Z,29.83
2018-10-17T13:52:48.845Z,32.97
2018-10-17T13:55:17.376Z,39.63
2018-10-17T13:57:45.930Z,35.33
2018-10-17T14:00:14.402Z,36.60
2018-10-17T14:02:43.767Z,33.73
2018-10-17T14:05:12.311Z,34.63
2018-10-17T14:07:40.816Z,30.10
2018-10-17T14:10:09.349Z,37.07
2018-10-17T14:12:37.888Z,42.80
2018-10-17T14:15:06.664Z,31.43
2018-10-17T14:17:35.147Z,33.60
2018-10-17T14:20:03.725Z,36.77
2018-10-17T14:22:32.246Z,35.83
2018-10-17T14:25:00.762Z,39.73
2018-10-17T14:27:29.301Z,33.60
2018-10-17T14:29:57.876Z,38.83
2018-10-17T14:32:26.383Z,43.73
2018-10-17T14:34:54.890Z,50.77
2018-10-17T14:37:23.439Z,64.07
2018-10-17T14:39:52.003Z,48.53
2018-10-17T14:42:20.602Z,54.47
2018-10-17T14:44:49.126Z,56.53
2018-10-17T14:47:18.193Z,55.00
2018-10-17T14:49:46.711Z,40.30
2018-10-17T14:52:15.591Z,39.73
2018-10-17T14:54:44.192Z,38.73
2018-10-17T14:57:12.752Z,33.90
2018-10-17T14:59:41.228Z,55.20
2018-10-17T15:02:09.742Z,41.20
2018-10-17T15:04:38.250Z,46.77
2018-10-17T15:07:06.814Z,47.30
2018-10-17T15:09:35.323Z,42.67
2018-10-17T15:12:03.956Z,52.13
2018-10-17T15:14:32.372Z,36.43
2018-10-17T15:17:00.961Z,38.63
2018-10-17T15:19:29.434Z,45.10
2018-10-17T15:21:58.103Z,41.90
2018-10-17T15:24:26.645Z,37.20
2018-10-17T15:26:55.171Z,38.43
2018-10-17T15:29:23.667Z,48.93
2018-10-17T15:31:52.266Z,45.43
2018-10-17T15:34:20.751Z,69.53
2018-10-17T15:36:49.307Z,61.10
2018-10-17T15:39:17.883Z,70.67
2018-10-17T15:41:46.382Z,79.40
2018-10-17T15:44:14.911Z,67.10
2018-10-17T15:46:43.419Z,62.73
2018-10-17T15:49:11.978Z,56.83
2018-10-17T15:51:40.494Z,38.00
2018-10-17T15:54:09.074Z,31.63
2018-10-17T15:56:37.595Z,31.70
2018-10-17T15:59:06.280Z,30.43
2018-10-17T16:01:34.793Z,33.63
2018-10-17T16:04:03.335Z,31.37
2018-10-17T16:06:31.839Z,31.83
2018-10-17T16:09:00.367Z,51.57
2018-10-17T16:11:28.939Z,38.50
2018-10-17T16:13:57.876Z,37.43
2018-10-17T16:16:26.424Z,35.40
2018-10-17T16:18:54.942Z,39.90
2018-10-17T16:21:23.503Z,37.50
2018-10-17T16:23:52.076Z,32.80
2018-10-17T16:29:13.266Z,49.10
2018-10-17T16:31:41.753Z,46.20
2018-10-17T16:34:10.266Z,40.13
2018-10-17T16:36:38.764Z,37.03
2018-10-17T16:39:10.034Z,31.90
2018-10-17T16:41:38.535Z,41.27
2018-10-17T16:44:07.300Z,61.37
2018-10-17T16:46:36.107Z,45.33
2018-10-17T16:49:04.683Z,39.17
2018-10-17T16:51:33.283Z,32.50
2018-10-17T16:54:01.863Z,30.00
2018-10-17T16:56:30.331Z,26.73
2018-10-17T16:58:58.925Z,22.77
2018-10-17T17:01:27.442Z,20.10
2018-10-17T17:03:55.970Z,19.40
2018-10-17T17:06:24.455Z,19.10
2018-10-17T17:08:53.010Z,18.90
2018-10-17T17:11:21.486Z,20.23
2018-10-17T17:13:49.986Z,21.87
2018-10-17T17:16:18.585Z,28.30
2018-10-17T17:18:47.079Z,36.37
2018-10-17T17:21:15.772Z,36.47
2018-10-17T17:23:45.242Z,27.27
2018-10-17T17:26:13.764Z,30.57
2018-10-17T17:28:43.138Z,25.47
2018-10-17T17:31:11.644Z,25.70
2018-10-17T17:33:41.222Z,28.37
2018-10-17T17:36:09.754Z,23.53
2018-10-17T17:38:38.363Z,29.10
2018-10-17T17:41:06.983Z,33.33
2018-10-17T17:43:35.523Z,29.60
2018-10-17T17:46:04.070Z,40.67
2018-10-17T17:48:32.547Z,41.17
2018-10-17T17:51:01.078Z,44.07
2018-10-17T17:53:29.584Z,37.50
2018-10-17T17:55:58.079Z,31.07
2018-10-17T17:58:27.035Z,39.37
2018-10-17T18:00:55.518Z,42.10
2018-10-17T18:03:24.877Z,47.23
2018-10-17T18:05:53.374Z,46.93
2018-10-17T18:08:21.911Z,49.63
2018-10-17T18:10:50.428Z,46.93
2018-10-17T18:13:19.154Z,43.80
2018-10-17T18:15:47.679Z,49.47
2018-10-17T18:18:16.929Z,38.00
2018-10-17T18:20:45.456Z,44.40
2018-10-17T18:23:13.974Z,37.83
2018-10-17T18:25:42.774Z,33.00
2018-10-17T18:28:11.442Z,36.70
2018-10-17T18:30:39.870Z,43.97
2018-10-17T18:33:08.434Z,43.90
2018-10-17T18:35:36.951Z,53.53
2018-10-17T18:38:05.721Z,53.27
2018-10-17T18:40:37.357Z,51.90
2018-10-17T18:43:05.903Z,48.20
2018-10-17T18:45:34.467Z,51.80
2018-10-17T18:48:03.007Z,36.23
2018-10-17T18:50:31.531Z,42.80
2018-10-17T18:53:00.036Z,40.07
2018-10-17T18:55:28.752Z,43.50
2018-10-17T18:57:57.243Z,41.03
2018-10-17T19:00:25.738Z,42.93
2018-10-17T19:02:54.242Z,40.87
2018-10-17T19:05:22.758Z,40.03
2018-10-17T19:07:51.291Z,47.20
2018-10-17T19:10:19.955Z,46.97
2018-10-17T19:12:48.450Z,53.30
2018-10-17T19:15:17.028Z,46.73
2018-10-17T19:17:45.513Z,48.63
2018-10-17T19:20:14.036Z,44.07
2018-10-17T19:22:42.574Z,47.27
2018-10-17T19:25:11.731Z,59.83
2018-10-17T19:27:40.258Z,49.73
2018-10-17T19:30:09.824Z,49.83
2018-10-17T19:32:38.350Z,44.47
2018-10-17T19:35:07.279Z,49.17
2018-10-17T19:37:35.763Z,44.43
2018-10-17T19:40:04.402Z,42.37
2018-10-17T19:42:32.922Z,50.50
2018-10-17T19:45:02.606Z,47.50
2018-10-17T19:47:31.097Z,52.43
2018-10-17T19:49:59.611Z,54.63
2018-10-17T19:52:28.123Z,58.37
2018-10-17T19:54:56.658Z,60.73
2018-10-17T19:57:25.167Z,54.80
2018-10-17T19:59:53.693Z,51.00
2018-10-17T20:02:22.974Z,49.47
2018-10-17T20:04:51.484Z,55.03
2018-10-17T20:07:20.123Z,47.13
2018-10-17T20:09:48.627Z,47.53
2018-10-17T20:12:17.143Z,50.50
2018-10-17T20:14:45.675Z,46.57
2018-10-17T20:17:14.177Z,45.10
2018-10-17T20:19:42.687Z,47.73
2018-10-17T20:22:12.231Z,45.40
2018-10-17T20:24:41.234Z,57.43
2018-10-17T20:27:10.189Z,48.83
2018-10-17T20:29:38.957Z,42.20
2018-10-17T20:32:08.022Z,42.27
2018-10-17T20:34:36.555Z,38.53
2018-10-17T20:37:05.182Z,44.83
2018-10-17T20:39:33.847Z,45.17
2018-10-17T20:42:02.473Z,47.47
2018-10-17T20:44:30.967Z,41.40
2018-10-17T20:46:59.488Z,45.40
2018-10-17T20:49:28.054Z,43.27
2018-10-17T20:51:56.550Z,40.27
2018-10-17T20:54:25.090Z,45.40
2018-10-17T20:56:53.604Z,41.57
2018-10-17T20:59:22.111Z,50.87
2018-10-17T21:01:50.770Z,42.73
2018-10-17T21:04:19.251Z,42.40
2018-10-17T21:06:47.777Z,43.60
2018-10-17T21:09:16.315Z,44.83
2018-10-17T21:11:44.813Z,41.57
2018-10-17T21:14:15.443Z,40.97
2018-10-17T21:16:43.939Z,41.50
2018-10-17T21:19:12.435Z,49.77
2018-10-17T21:21:40.959Z,44.80
2018-10-17T21:24:09.478Z,46.30
2018-10-17T21:26:38.003Z,43.63
2018-10-17T21:29:06.834Z,41.00
2018-10-17T21:31:35.324Z,44.80
2018-10-17T21:34:03.886Z,45.90
2018-10-17T21:36:32.392Z,43.57
2018-10-17T21:39:00.900Z,47.77
2018-10-17T21:41:29.404Z,43.87
2018-10-17T21:43:57.962Z,43.20
2018-10-17T21:46:26.466Z,39.30
2018-10-17T21:48:54.954Z,42.20
2018-10-17T21:51:23.466Z,39.70
2018-10-17T21:53:51.994Z,46.13
2018-10-17T21:56:20.511Z,40.80
2018-10-17T21:58:49.019Z,44.03
2018-10-17T22:01:17.536Z,48.13
2018-10-17T22:03:46.038Z,38.73
2018-10-17T22:06:14.538Z,39.53
2018-10-17T22:08:43.920Z,40.43
2018-10-17T22:11:12.416Z,42.13
2018-10-17T22:13:41.721Z,48.10
2018-10-17T22:16:10.246Z,49.10
2018-10-17T22:18:38.868Z,41.53
2018-10-17T22:21:07.672Z,45.50
2018-10-17T22:23:36.176Z,50.50
2018-10-17T22:26:04.716Z,42.70
2018-10-17T22:28:33.221Z,45.13
2018-10-17T22:31:01.769Z,43.13
2018-10-17T22:33:30.269Z,42.73
2018-10-17T22:35:58.774Z,45.03
2018-10-17T22:38:27.317Z,44.13
2018-10-17T22:40:55.856Z,42.97
2018-10-17T22:43:24.343Z,58.97
2018-10-17T22:45:52.834Z,43.50
2018-10-17T22:48:21.335Z,52.40
2018-10-17T22:50:49.840Z,47.33
2018-10-17T22:53:18.343Z,44.60
2018-10-17T22:55:46.843Z,41.37
2018-10-17T22:58:27.135Z,45.70
2018-10-17T23:00:55.632Z,45.77
2018-10-17T23:03:24.155Z,46.57
2018-10-17T23:05:52.654Z,46.80
2018-10-17T23:08:21.155Z,54.77
2018-10-17T23:10:49.710Z,49.37
2018-10-17T23:13:18.242Z,43.60
2018-10-17T23:15:46.758Z,51.17
2018-10-17T23:18:15.266Z,45.60
2018-10-17T23:20:43.754Z,41.90
2018-10-17T23:23:12.243Z,45.83
2018-10-17T23:25:40.763Z,46.53
2018-10-17T23:28:09.262Z,50.63
2018-10-17T23:30:37.778Z,44.70
2018-10-17T23:33:06.280Z,44.77
2018-10-17T23:35:34.786Z,44.70
2018-10-17T23:38:03.348Z,50.37
2018-10-17T23:40:31.882Z,49.53
2018-10-17T23:43:00.382Z,46.50
2018-10-17T23:45:28.887Z,44.97
2018-10-17T23:47:57.430Z,49.53
2018-10-17T23:50:25.983Z,49.80
2018-10-17T23:52:54.482Z,48.57
2018-10-17T23:55:22.981Z,47.03
2018-10-17T23:57:51.494Z,47.27
